Garrisonville, Virginia
Current Conditions -  °F | °C
As of 5:35 AM on Saturday 01 Nov 2014 (Local Time) from KRMN Reporting Station
Scattered Clouds Scattered Clouds  
Wind Chill: 39°   Ceiling: Unl
Heat Index: 44°   Visibility: 10mi
Dew Point: 35°   Wind: 9mph
Humidity: 71%   Direction: 340°NNW
Pressure: 29.8"   Gusts: NA
Location:  38.48°N, 77.43°W
Report Text: KRMN 010935Z AUTO 34008KT 10SM SCT026 07/02 A2980 RMK AO2 T00650016
Loading
Personal Weather Stations






























Interactive Weather Map New forecast layout! Learn more

10-Day Weather Forecast

Advertisements
Track Severe Weather on mobile